»·PEaware :: WAT169 KSNA-KDEN

WAT169 :: KSNA-KDEN

FLIGHT INFORMATION

Flight Status: Arrived
Operator:
Walker Air Transport
More flights by this operator :: More flights under this callsign
Pilot: Marty P. (27464)
Aircraft: BOEING 737-800
(B738)
More flights by this aircraft type
Origin: KSNA John Wayne-Orange Co
United States
Destination: KDEN Denver Intl
United States
More flights between these airports :: More routes between these airports
Route: FINZZ3 BEALE J146 DICEE BUMMP SSKII1
File this flight plan on PilotEdge
Remarks:
Altitude:
(Current/Filed)
39,000ft
Speed:
(Current/Filed)
480kts
Departed: 10-Oct-20 02:04 PM
Arrived: 10-Oct-20 03:51 PM
Distance/Time
Traveled:
734nm/1:47
Distance/Time
To Go:
Arrived

Flight Plot

Page will automatically refresh every two minutes.

Flight plan parsing failed; only flown route is shown


Map Options




Map Legend


Flown Route
Filed Route
Departure Airport
Arrival Airport
Navaid (VOR, NDB)
Fix

Horizontal Profiles

Position Reports

Time Latitude Longitude Heading Altitude Ground
Speed
10-Oct-20 13:43 33.675005 -117.865072 118 67ft 0kts
10-Oct-20 13:44 33.675005 -117.865072 118 66ft 0kts
10-Oct-20 13:45 33.675005 -117.865072 118 66ft 0kts
10-Oct-20 13:46 33.675005 -117.865072 118 66ft 0kts
10-Oct-20 13:47 33.675005 -117.865072 118 66ft 0kts
10-Oct-20 13:48 33.675005 -117.865072 118 66ft 0kts
10-Oct-20 13:49 33.675005 -117.865072 118 66ft 0kts
10-Oct-20 13:50 33.675005 -117.865072 118 66ft 0kts
10-Oct-20 13:51 33.675005 -117.865072 118 66ft 0kts
10-Oct-20 13:52 33.675005 -117.865072 118 66ft 0kts
10-Oct-20 13:53 33.675005 -117.865072 118 66ft 0kts
10-Oct-20 13:54 33.675005 -117.865073 118 66ft 0kts
10-Oct-20 13:55 33.675165 -117.865486 93 66ft 2kts
10-Oct-20 13:56 33.674931 -117.865959 26 66ft 1kts
10-Oct-20 13:57 33.674922 -117.865964 27 66ft 0kts
10-Oct-20 13:58 33.674922 -117.865964 27 66ft 0kts
10-Oct-20 13:59 33.676656 -117.864856 27 66ft 11kts
10-Oct-20 14:00 33.680336 -117.862767 341 66ft 12kts
10-Oct-20 14:01 33.680623 -117.863061 305 66ft 0kts
10-Oct-20 14:02 33.681202 -117.865294 214 66ft 11kts
10-Oct-20 14:03 33.657469 -117.880458 207 861ft 163kts
10-Oct-20 14:04 33.603044 -117.895337 185 2950ft 239kts
10-Oct-20 14:05 33.543233 -117.929851 225 6783ft 253kts
10-Oct-20 14:06 33.505964 -117.999921 268 8140ft 259kts
10-Oct-20 14:07 33.538006 -118.077028 318 10943ft 306kts
10-Oct-20 14:08 33.630678 -118.101410 16 12453ft 391kts
10-Oct-20 14:09 33.731072 -118.047363 25 15390ft 407kts
10-Oct-20 14:10 33.834778 -117.989014 26 18026ft 421kts
10-Oct-20 14:11 33.938125 -117.919994 37 20327ft 432kts
10-Oct-20 14:12 34.034733 -117.831377 38 22330ft 444kts
10-Oct-20 14:13 34.121676 -117.723311 48 24074ft 456kts
10-Oct-20 14:14 34.204485 -117.604973 50 25876ft 462kts
10-Oct-20 14:15 34.285062 -117.484355 49 27841ft 457kts
10-Oct-20 14:16 34.364604 -117.367062 48 29874ft 448kts
10-Oct-20 14:17 34.442494 -117.251038 48 31514ft 445kts
10-Oct-20 14:18 34.520056 -117.134760 48 32965ft 443kts
10-Oct-20 14:19 34.598065 -117.019677 47 34262ft 441kts
10-Oct-20 14:20 34.676581 -116.905382 47 35452ft 440kts
10-Oct-20 14:21 34.754566 -116.791462 47 36532ft 439kts
10-Oct-20 14:22 34.832701 -116.676997 47 37434ft 440kts
10-Oct-20 14:23 34.913065 -116.565496 44 38259ft 438kts
10-Oct-20 14:24 34.995205 -116.456210 44 38948ft 439kts
10-Oct-20 14:25 35.078838 -116.344346 45 38944ft 454kts
10-Oct-20 14:26 35.164991 -116.228526 45 38944ft 466kts
10-Oct-20 14:27 35.252431 -116.110612 45 38932ft 473kts
10-Oct-20 14:28 35.340941 -115.990814 45 38923ft 477kts
10-Oct-20 14:29 35.430529 -115.869144 45 38922ft 482kts
10-Oct-20 14:30 35.520227 -115.746885 45 38926ft 485kts
10-Oct-20 14:31 35.610328 -115.623628 45 38926ft 486kts
10-Oct-20 14:32 35.700447 -115.499887 45 38926ft 487kts
10-Oct-20 14:34 35.790265 -115.374279 45 38926ft 489kts
10-Oct-20 14:35 35.879399 -115.250365 46 38922ft 492kts
10-Oct-20 14:36 35.970461 -115.123765 46 38907ft 496kts
10-Oct-20 14:37 36.062107 -114.995922 46 38912ft 499kts
10-Oct-20 14:38 36.153669 -114.867001 51 38913ft 504kts
10-Oct-20 14:39 36.215524 -114.710396 67 38917ft 511kts
10-Oct-20 14:40 36.267751 -114.545744 68 38906ft 517kts
10-Oct-20 14:41 36.319170 -114.378230 69 38909ft 522kts
10-Oct-20 14:42 36.370463 -114.209247 70 38911ft 525kts
10-Oct-20 14:43 36.421629 -114.039262 70 38948ft 527kts
10-Oct-20 14:44 36.472737 -113.868485 70 38964ft 529kts
10-Oct-20 14:45 36.523740 -113.696904 70 38962ft 531kts
10-Oct-20 14:46 36.574644 -113.524576 70 38963ft 531kts
10-Oct-20 14:47 36.625305 -113.352004 70 39035ft 531kts
10-Oct-20 14:48 36.674341 -113.179176 71 39081ft 530kts
10-Oct-20 14:49 36.724011 -113.006011 71 39082ft 532kts
10-Oct-20 14:50 36.773846 -112.832407 71 39082ft 533kts
10-Oct-20 14:50 36.815332 -112.687270 71 39082ft 534kts
10-Oct-20 14:52 36.873365 -112.483019 71 39081ft 536kts
10-Oct-20 14:52 36.914001 -112.336715 72 39082ft 537kts
10-Oct-20 14:53 36.963087 -112.160177 72 39035ft 539kts
10-Oct-20 14:54 37.012128 -111.984108 72 39035ft 539kts
10-Oct-20 14:55 37.061163 -111.807196 72 39000ft 542kts
10-Oct-20 14:56 37.110272 -111.628893 72 38999ft 543kts
10-Oct-20 14:57 37.159106 -111.450404 72 39000ft 544kts
10-Oct-20 14:58 37.207437 -111.273078 71 38999ft 544kts
10-Oct-20 14:59 37.269524 -111.099803 64 39000ft 545kts
10-Oct-20 15:00 37.337074 -110.928953 64 38999ft 546kts
10-Oct-20 15:01 37.404623 -110.758206 64 39000ft 547kts
10-Oct-20 15:02 37.472155 -110.586792 64 39012ft 548kts
10-Oct-20 15:03 37.539817 -110.414143 64 39039ft 549kts
10-Oct-20 15:04 37.606354 -110.243633 64 39077ft 549kts
10-Oct-20 15:05 37.673331 -110.071005 64 39164ft 549kts
10-Oct-20 15:06 37.740227 -109.897499 64 39164ft 550kts
10-Oct-20 15:07 37.806790 -109.723860 64 39164ft 551kts
10-Oct-20 15:08 37.873487 -109.548882 64 39164ft 552kts
10-Oct-20 15:09 37.939806 -109.373889 64 39087ft 554kts
10-Oct-20 15:10 38.006426 -109.197417 65 39091ft 554kts
10-Oct-20 15:11 38.072346 -109.021556 65 39125ft 553kts
10-Oct-20 15:12 38.138243 -108.845662 64 39148ft 553kts
10-Oct-20 15:13 38.206258 -108.669879 63 39147ft 554kts
10-Oct-20 15:14 38.274550 -108.494801 63 39120ft 555kts
10-Oct-20 15:15 38.343087 -108.318615 64 39048ft 556kts
10-Oct-20 15:16 38.411535 -108.141970 64 38993ft 556kts
10-Oct-20 15:17 38.479089 -107.965494 65 39016ft 555kts
10-Oct-20 15:18 38.545596 -107.787493 64 39018ft 555kts
10-Oct-20 15:19 38.612335 -107.609693 64 39018ft 556kts
10-Oct-20 15:20 38.679174 -107.431319 64 39019ft 556kts
10-Oct-20 15:21 38.744707 -107.257777 64 38121ft 533kts
10-Oct-20 15:22 38.808259 -107.089250 64 35742ft 516kts
10-Oct-20 15:23 38.870672 -106.922830 63 33649ft 522kts
10-Oct-20 15:24 38.932995 -106.755700 63 31634ft 520kts
10-Oct-20 15:25 38.995558 -106.587052 63 29824ft 523kts
10-Oct-20 15:26 39.056902 -106.417566 63 28021ft 525kts
10-Oct-20 15:27 39.118610 -106.247884 64 25739ft 518kts
10-Oct-20 15:28 39.176699 -106.087350 64 23247ft 473kts
10-Oct-20 15:29 39.230454 -105.937828 64 20738ft 448kts
10-Oct-20 15:30 39.279118 -105.802447 64 20358ft 379kts
10-Oct-20 15:31 39.321713 -105.683399 64 20364ft 369kts
10-Oct-20 15:32 39.365454 -105.562496 64 18896ft 370kts
10-Oct-20 15:33 39.408167 -105.445287 65 17373ft 344kts
10-Oct-20 15:34 39.461141 -105.339620 55 16601ft 349kts
10-Oct-20 15:35 39.515623 -105.239518 55 15445ft 331kts
10-Oct-20 15:36 39.569352 -105.140048 55 14919ft 340kts
10-Oct-20 15:37 39.623020 -105.040418 55 13409ft 331kts
10-Oct-20 15:38 39.673400 -104.946587 56 13118ft 315kts
10-Oct-20 15:39 39.728859 -104.858463 31 13038ft 317kts
10-Oct-20 15:40 39.816524 -104.839940 359 11320ft 330kts
10-Oct-20 15:41 39.902631 -104.839241 359 11007ft 284kts
10-Oct-20 15:42 39.980721 -104.837945 0 9733ft 276kts
10-Oct-20 15:43 40.055099 -104.839126 358 8177ft 256kts
10-Oct-20 15:44 40.086298 -104.781254 86 8004ft 211kts
10-Oct-20 15:45 40.071416 -104.713609 140 8026ft 201kts
10-Oct-20 15:46 40.023915 -104.684232 182 8000ft 198kts
10-Oct-20 15:47 39.969602 -104.686001 179 6886ft 181kts
10-Oct-20 15:48 39.924409 -104.686493 178 6009ft 159kts
10-Oct-20 15:49 39.883097 -104.686940 180 5444ft 89kts
10-Oct-20 15:50 39.868778 -104.687140 180 5444ft 40kts
10-Oct-20 15:51 39.864271 -104.683739 90 5444ft 24kts
10-Oct-20 15:52 39.863881 -104.677858 168 5444ft 2kts

Navigation Log

Ident Type
Flight plan parsing failed, navigation log unavailable